sensor_id;sensor_type;location;lat;lon;timestamp;P1;durP1;ratioP1;P2;durP2;ratioP2
22282;SDS011;11310;51.528;21.204;2023-02-22T00:00:58;14.80;;;3.22;;
22282;SDS011;11310;51.528;21.204;2023-02-22T00:03:36;10.38;;;2.95;;
22282;SDS011;11310;51.528;21.204;2023-02-22T00:06:04;18.88;;;3.35;;
22282;SDS011;11310;51.528;21.204;2023-02-22T00:08:34;14.90;;;3.33;;
22282;SDS011;11310;51.528;21.204;2023-02-22T00:11:05;12.70;;;2.70;;
22282;SDS011;11310;51.528;21.204;2023-02-22T00:13:41;15.88;;;3.13;;
22282;SDS011;11310;51.528;21.204;2023-02-22T00:16:14;16.70;;;3.40;;
22282;SDS011;11310;51.528;21.204;2023-02-22T00:18:48;12.80;;;3.05;;
22282;SDS011;11310;51.528;21.204;2023-02-22T00:21:30;14.07;;;3.22;;
22282;SDS011;11310;51.528;21.204;2023-02-22T00:24:10;14.43;;;3.55;;
22282;SDS011;11310;51.528;21.204;2023-02-22T00:26:50;10.88;;;2.92;;
22282;SDS011;11310;51.528;21.204;2023-02-22T00:29:47;11.80;;;3.10;;
22282;SDS011;11310;51.528;21.204;2023-02-22T00:32:16;15.70;;;3.50;;
22282;SDS011;11310;51.528;21.204;2023-02-22T00:34:52;14.05;;;3.80;;
22282;SDS011;11310;51.528;21.204;2023-02-22T00:37:24;14.48;;;3.50;;
22282;SDS011;11310;51.528;21.204;2023-02-22T00:39:57;16.35;;;3.78;;
22282;SDS011;11310;51.528;21.204;2023-02-22T00:43:29;16.15;;;3.50;;
22282;SDS011;11310;51.528;21.204;2023-02-22T00:46:12;13.13;;;2.85;;
22282;SDS011;11310;51.528;21.204;2023-02-22T00:48:46;15.48;;;3.38;;
22282;SDS011;11310;51.528;21.204;2023-02-22T00:51:25;13.82;;;3.25;;
22282;SDS011;11310;51.528;21.204;2023-02-22T00:53:59;14.75;;;3.03;;
22282;SDS011;11310;51.528;21.204;2023-02-22T00:56:33;18.33;;;3.47;;
22282;SDS011;11310;51.528;21.204;2023-02-22T00:59:03;16.02;;;4.13;;
22282;SDS011;11310;51.528;21.204;2023-02-22T01:01:34;11.98;;;2.92;;
22282;SDS011;11310;51.528;21.204;2023-02-22T01:04:06;9.73;;;2.30;;
22282;SDS011;11310;51.528;21.204;2023-02-22T01:06:39;11.57;;;2.73;;
22282;SDS011;11310;51.528;21.204;2023-02-22T01:09:11;11.35;;;2.75;;
22282;SDS011;11310;51.528;21.204;2023-02-22T01:11:40;11.48;;;2.80;;
22282;SDS011;11310;51.528;21.204;2023-02-22T01:14:09;10.20;;;2.50;;
22282;SDS011;11310;51.528;21.204;2023-02-22T01:16:39;13.23;;;3.05;;
22282;SDS011;11310;51.528;21.204;2023-02-22T01:19:16;8.88;;;2.60;;
22282;SDS011;11310;51.528;21.204;2023-02-22T01:21:47;14.20;;;3.33;;
22282;SDS011;11310;51.528;21.204;2023-02-22T01:24:27;8.50;;;3.13;;
22282;SDS011;11310;51.528;21.204;2023-02-22T01:27:03;8.95;;;2.80;;
22282;SDS011;11310;51.528;21.204;2023-02-22T01:29:36;7.88;;;2.70;;
22282;SDS011;11310;51.528;21.204;2023-02-22T01:32:17;11.13;;;2.83;;
22282;SDS011;11310;51.528;21.204;2023-02-22T01:34:48;11.20;;;2.90;;
22282;SDS011;11310;51.528;21.204;2023-02-22T01:37:25;12.18;;;3.42;;
22282;SDS011;11310;51.528;21.204;2023-02-22T01:39:56;19.38;;;3.25;;
22282;SDS011;11310;51.528;21.204;2023-02-22T01:42:35;14.82;;;3.03;;
22282;SDS011;11310;51.528;21.204;2023-02-22T01:48:24;14.68;;;2.90;;
22282;SDS011;11310;51.528;21.204;2023-02-22T01:51:09;15.80;;;3.35;;
22282;SDS011;11310;51.528;21.204;2023-02-22T01:53:49;14.77;;;3.63;;
22282;SDS011;11310;51.528;21.204;2023-02-22T01:56:45;11.80;;;3.67;;
22282;SDS011;11310;51.528;21.204;2023-02-22T01:59:24;12.32;;;3.90;;
22282;SDS011;11310;51.528;21.204;2023-02-22T02:01:59;12.90;;;3.58;;
22282;SDS011;11310;51.528;21.204;2023-02-22T02:04:31;17.80;;;3.88;;
22282;SDS011;11310;51.528;21.204;2023-02-22T02:07:12;13.63;;;3.67;;
22282;SDS011;11310;51.528;21.204;2023-02-22T02:09:46;16.73;;;3.67;;
22282;SDS011;11310;51.528;21.204;2023-02-22T02:12:22;11.50;;;3.63;;
22282;SDS011;11310;51.528;21.204;2023-02-22T02:17:49;20.67;;;4.40;;
22282;SDS011;11310;51.528;21.204;2023-02-22T02:20:25;14.80;;;3.58;;
22282;SDS011;11310;51.528;21.204;2023-02-22T02:23:03;14.40;;;3.90;;
22282;SDS011;11310;51.528;21.204;2023-02-22T02:29:06;13.75;;;3.28;;
22282;SDS011;11310;51.528;21.204;2023-02-22T02:32:07;14.80;;;3.72;;
22282;SDS011;11310;51.528;21.204;2023-02-22T02:35:05;18.00;;;3.97;;
22282;SDS011;11310;51.528;21.204;2023-02-22T02:37:42;17.40;;;3.78;;
22282;SDS011;11310;51.528;21.204;2023-02-22T02:40:22;18.60;;;3.97;;
22282;SDS011;11310;51.528;21.204;2023-02-22T02:42:59;12.43;;;3.65;;
22282;SDS011;11310;51.528;21.204;2023-02-22T02:45:32;9.35;;;3.35;;
22282;SDS011;11310;51.528;21.204;2023-02-22T02:48:10;16.67;;;3.72;;
22282;SDS011;11310;51.528;21.204;2023-02-22T02:50:43;12.65;;;3.35;;
22282;SDS011;11310;51.528;21.204;2023-02-22T02:53:17;14.38;;;3.33;;
22282;SDS011;11310;51.528;21.204;2023-02-22T02:55:57;12.75;;;3.13;;
22282;SDS011;11310;51.528;21.204;2023-02-22T02:58:29;21.15;;;3.53;;
22282;SDS011;11310;51.528;21.204;2023-02-22T03:01:05;12.73;;;3.10;;
22282;SDS011;11310;51.528;21.204;2023-02-22T03:03:43;14.85;;;3.78;;
22282;SDS011;11310;51.528;21.204;2023-02-22T03:06:23;18.60;;;3.25;;
22282;SDS011;11310;51.528;21.204;2023-02-22T03:09:14;11.02;;;3.05;;
22282;SDS011;11310;51.528;21.204;2023-02-22T03:11:57;8.95;;;2.92;;
22282;SDS011;11310;51.528;21.204;2023-02-22T03:14:37;12.95;;;3.80;;
22282;SDS011;11310;51.528;21.204;2023-02-22T03:17:14;11.57;;;3.75;;
22282;SDS011;11310;51.528;21.204;2023-02-22T03:19:59;12.23;;;3.05;;
22282;SDS011;11310;51.528;21.204;2023-02-22T03:22:38;15.20;;;3.63;;
22282;SDS011;11310;51.528;21.204;2023-02-22T03:25:16;12.82;;;3.30;;
22282;SDS011;11310;51.528;21.204;2023-02-22T03:27:59;11.23;;;3.03;;
22282;SDS011;11310;51.528;21.204;2023-02-22T03:30:37;13.70;;;3.22;;
22282;SDS011;11310;51.528;21.204;2023-02-22T03:33:16;11.93;;;3.20;;
22282;SDS011;11310;51.528;21.204;2023-02-22T03:35:57;13.77;;;3.38;;
22282;SDS011;11310;51.528;21.204;2023-02-22T03:38:31;12.85;;;3.50;;
22282;SDS011;11310;51.528;21.204;2023-02-22T03:41:08;18.52;;;3.15;;
22282;SDS011;11310;51.528;21.204;2023-02-22T03:43:41;15.60;;;3.38;;
22282;SDS011;11310;51.528;21.204;2023-02-22T03:46:14;9.82;;;2.78;;
22282;SDS011;11310;51.528;21.204;2023-02-22T03:48:52;11.52;;;2.97;;
22282;SDS011;11310;51.528;21.204;2023-02-22T03:51:33;13.05;;;3.20;;
22282;SDS011;11310;51.528;21.204;2023-02-22T03:54:06;10.38;;;2.88;;
22282;SDS011;11310;51.528;21.204;2023-02-22T03:59:40;11.90;;;2.78;;
22282;SDS011;11310;51.528;21.204;2023-02-22T04:02:10;13.68;;;2.92;;
22282;SDS011;11310;51.528;21.204;2023-02-22T04:04:42;10.82;;;3.20;;
22282;SDS011;11310;51.528;21.204;2023-02-22T04:07:16;9.88;;;2.55;;
22282;SDS011;11310;51.528;21.204;2023-02-22T04:09:50;12.70;;;4.05;;
22282;SDS011;11310;51.528;21.204;2023-02-22T04:14:58;8.40;;;2.20;;
22282;SDS011;11310;51.528;21.204;2023-02-22T04:17:37;10.43;;;3.47;;
22282;SDS011;11310;51.528;21.204;2023-02-22T04:20:08;11.80;;;3.95;;
22282;SDS011;11310;51.528;21.204;2023-02-22T04:23:03;9.75;;;2.80;;
22282;SDS011;11310;51.528;21.204;2023-02-22T04:25:36;9.80;;;3.15;;
22282;SDS011;11310;51.528;21.204;2023-02-22T04:28:25;8.07;;;2.72;;
22282;SDS011;11310;51.528;21.204;2023-02-22T04:31:04;9.73;;;2.45;;
22282;SDS011;11310;51.528;21.204;2023-02-22T04:33:41;11.88;;;2.95;;
22282;SDS011;11310;51.528;21.204;2023-02-22T04:36:14;7.35;;;2.28;;
22282;SDS011;11310;51.528;21.204;2023-02-22T04:41:16;11.18;;;2.28;;
22282;SDS011;11310;51.528;21.204;2023-02-22T04:43:52;10.20;;;2.83;;
22282;SDS011;11310;51.528;21.204;2023-02-22T04:46:23;8.35;;;2.80;;
22282;SDS011;11310;51.528;21.204;2023-02-22T04:48:52;9.93;;;2.40;;
22282;SDS011;11310;51.528;21.204;2023-02-22T04:51:24;10.77;;;2.90;;
22282;SDS011;11310;51.528;21.204;2023-02-22T04:54:10;8.20;;;2.45;;
22282;SDS011;11310;51.528;21.204;2023-02-22T04:56:45;9.82;;;2.35;;
22282;SDS011;11310;51.528;21.204;2023-02-22T04:59:15;10.23;;;2.42;;
22282;SDS011;11310;51.528;21.204;2023-02-22T05:01:54;6.95;;;2.10;;
22282;SDS011;11310;51.528;21.204;2023-02-22T05:04:24;9.07;;;2.30;;
22282;SDS011;11310;51.528;21.204;2023-02-22T05:06:57;7.50;;;2.13;;
22282;SDS011;11310;51.528;21.204;2023-02-22T05:09:46;9.35;;;2.53;;
22282;SDS011;11310;51.528;21.204;2023-02-22T05:12:18;4.78;;;2.17;;
22282;SDS011;11310;51.528;21.204;2023-02-22T05:14:59;6.85;;;2.35;;
22282;SDS011;11310;51.528;21.204;2023-02-22T05:17:53;8.25;;;2.72;;
22282;SDS011;11310;51.528;21.204;2023-02-22T05:20:47;6.15;;;1.80;;
22282;SDS011;11310;51.528;21.204;2023-02-22T05:23:36;10.75;;;2.30;;
22282;SDS011;11310;51.528;21.204;2023-02-22T05:29:37;9.82;;;2.47;;
22282;SDS011;11310;51.528;21.204;2023-02-22T05:32:11;11.55;;;2.55;;
22282;SDS011;11310;51.528;21.204;2023-02-22T05:34:50;9.70;;;2.45;;
22282;SDS011;11310;51.528;21.204;2023-02-22T05:38:07;12.40;;;2.47;;
22282;SDS011;11310;51.528;21.204;2023-02-22T05:40:42;6.85;;;2.28;;
22282;SDS011;11310;51.528;21.204;2023-02-22T05:43:28;7.75;;;2.40;;
22282;SDS011;11310;51.528;21.204;2023-02-22T05:47:01;8.18;;;2.05;;
22282;SDS011;11310;51.528;21.204;2023-02-22T05:49:50;8.15;;;2.10;;
22282;SDS011;11310;51.528;21.204;2023-02-22T05:54:02;8.65;;;2.28;;
22282;SDS011;11310;51.528;21.204;2023-02-22T05:57:14;6.22;;;2.00;;
22282;SDS011;11310;51.528;21.204;2023-02-22T06:00:00;11.82;;;2.58;;
22282;SDS011;11310;51.528;21.204;2023-02-22T06:31:57;8.27;;;2.33;;
22282;SDS011;11310;51.528;21.204;2023-02-22T06:48:49;9.25;;;4.00;;
22282;SDS011;11310;51.528;21.204;2023-02-22T06:51:57;7.63;;;2.88;;
22282;SDS011;11310;51.528;21.204;2023-02-22T06:54:55;10.10;;;3.15;;
22282;SDS011;11310;51.528;21.204;2023-02-22T07:02:02;6.90;;;2.47;;
22282;SDS011;11310;51.528;21.204;2023-02-22T07:08:06;10.93;;;2.95;;
22282;SDS011;11310;51.528;21.204;2023-02-22T07:11:25;7.95;;;2.65;;
22282;SDS011;11310;51.528;21.204;2023-02-22T07:25:17;6.45;;;2.90;;
22282;SDS011;11310;51.528;21.204;2023-02-22T07:28:03;7.75;;;2.80;;
22282;SDS011;11310;51.528;21.204;2023-02-22T07:30:59;11.60;;;3.50;;
22282;SDS011;11310;51.528;21.204;2023-02-22T07:33:44;6.32;;;2.88;;
22282;SDS011;11310;51.528;21.204;2023-02-22T07:40:43;7.25;;;2.40;;
22282;SDS011;11310;51.528;21.204;2023-02-22T07:44:14;8.95;;;3.20;;
22282;SDS011;11310;51.528;21.204;2023-02-22T07:47:25;4.88;;;2.40;;
22282;SDS011;11310;51.528;21.204;2023-02-22T07:51:15;6.00;;;2.50;;
22282;SDS011;11310;51.528;21.204;2023-02-22T08:04:59;5.17;;;2.00;;
22282;SDS011;11310;51.528;21.204;2023-02-22T08:18:49;5.65;;;1.80;;
22282;SDS011;11310;51.528;21.204;2023-02-22T08:22:15;4.18;;;1.63;;
22282;SDS011;11310;51.528;21.204;2023-02-22T08:26:06;8.38;;;2.00;;
22282;SDS011;11310;51.528;21.204;2023-02-22T08:29:31;5.03;;;2.65;;
22282;SDS011;11310;51.528;21.204;2023-02-22T08:42:50;4.55;;;1.58;;
22282;SDS011;11310;51.528;21.204;2023-02-22T08:45:41;3.30;;;1.73;;
22282;SDS011;11310;51.528;21.204;2023-02-22T08:48:30;2.70;;;1.35;;
22282;SDS011;11310;51.528;21.204;2023-02-22T08:51:38;3.05;;;1.45;;
22282;SDS011;11310;51.528;21.204;2023-02-22T08:54:20;3.22;;;0.80;;
22282;SDS011;11310;51.528;21.204;2023-02-22T08:57:02;1.90;;;1.17;;
22282;SDS011;11310;51.528;21.204;2023-02-22T09:00:36;2.70;;;1.40;;
22282;SDS011;11310;51.528;21.204;2023-02-22T09:03:35;4.90;;;1.60;;
22282;SDS011;11310;51.528;21.204;2023-02-22T09:07:01;2.85;;;1.20;;
22282;SDS011;11310;51.528;21.204;2023-02-22T09:13:49;1.98;;;1.25;;
22282;SDS011;11310;51.528;21.204;2023-02-22T09:16:54;2.40;;;1.10;;
22282;SDS011;11310;51.528;21.204;2023-02-22T09:26:13;1.20;;;0.80;;
22282;SDS011;11310;51.528;21.204;2023-02-22T09:28:55;1.57;;;0.80;;
22282;SDS011;11310;51.528;21.204;2023-02-22T09:31:57;1.83;;;1.13;;
22282;SDS011;11310;51.528;21.204;2023-02-22T09:34:51;3.05;;;1.13;;
22282;SDS011;11310;51.528;21.204;2023-02-22T09:40:45;1.60;;;0.98;;
22282;SDS011;11310;51.528;21.204;2023-02-22T09:43:30;1.20;;;0.95;;
22282;SDS011;11310;51.528;21.204;2023-02-22T09:46:30;2.13;;;1.13;;
22282;SDS011;11310;51.528;21.204;2023-02-22T09:55:32;2.42;;;1.17;;
22282;SDS011;11310;51.528;21.204;2023-02-22T10:02:45;1.55;;;0.90;;
22282;SDS011;11310;51.528;21.204;2023-02-22T10:05:25;1.48;;;1.20;;
22282;SDS011;11310;51.528;21.204;2023-02-22T10:08:11;2.83;;;1.42;;
22282;SDS011;11310;51.528;21.204;2023-02-22T10:10:53;2.30;;;1.10;;
22282;SDS011;11310;51.528;21.204;2023-02-22T10:14:08;1.50;;;1.02;;
22282;SDS011;11310;51.528;21.204;2023-02-22T10:16:57;3.37;;;1.57;;
22282;SDS011;11310;51.528;21.204;2023-02-22T10:19:38;1.38;;;0.93;;
22282;SDS011;11310;51.528;21.204;2023-02-22T10:22:21;3.75;;;1.20;;
22282;SDS011;11310;51.528;21.204;2023-02-22T10:25:10;3.63;;;1.42;;
22282;SDS011;11310;51.528;21.204;2023-02-22T10:28:02;3.22;;;1.27;;
22282;SDS011;11310;51.528;21.204;2023-02-22T10:30:45;2.58;;;1.02;;
22282;SDS011;11310;51.528;21.204;2023-02-22T10:33:24;2.05;;;1.00;;
22282;SDS011;11310;51.528;21.204;2023-02-22T10:36:23;2.38;;;1.30;;
22282;SDS011;11310;51.528;21.204;2023-02-22T10:43:37;2.00;;;1.00;;
22282;SDS011;11310;51.528;21.204;2023-02-22T10:46:17;2.55;;;1.27;;
22282;SDS011;11310;51.528;21.204;2023-02-22T10:49:41;1.23;;;0.90;;
22282;SDS011;11310;51.528;21.204;2023-02-22T10:52:34;2.08;;;1.05;;
22282;SDS011;11310;51.528;21.204;2023-02-22T10:56:03;1.63;;;0.85;;
22282;SDS011;11310;51.528;21.204;2023-02-22T11:31:10;3.08;;;1.52;;
22282;SDS011;11310;51.528;21.204;2023-02-22T13:25:07;3.53;;;1.70;;
22282;SDS011;11310;51.528;21.204;2023-02-22T13:28:34;4.60;;;1.88;;
22282;SDS011;11310;51.528;21.204;2023-02-22T13:37:13;5.40;;;1.88;;
22282;SDS011;11310;51.528;21.204;2023-02-22T15:18:24;7.88;;;3.20;;
22282;SDS011;11310;51.528;21.204;2023-02-22T15:21:12;6.80;;;3.03;;
22282;SDS011;11310;51.528;21.204;2023-02-22T15:23:58;7.32;;;3.08;;
22282;SDS011;11310;51.528;21.204;2023-02-22T15:26:30;7.57;;;3.17;;
22282;SDS011;11310;51.528;21.204;2023-02-22T15:29:06;5.85;;;2.53;;
22282;SDS011;11310;51.528;21.204;2023-02-22T15:31:37;6.25;;;2.72;;
22282;SDS011;11310;51.528;21.204;2023-02-22T15:34:19;5.65;;;2.90;;
22282;SDS011;11310;51.528;21.204;2023-02-22T15:36:51;6.32;;;3.28;;
22282;SDS011;11310;51.528;21.204;2023-02-22T15:39:23;11.10;;;3.38;;
22282;SDS011;11310;51.528;21.204;2023-02-22T15:42:03;8.35;;;3.28;;
22282;SDS011;11310;51.528;21.204;2023-02-22T15:44:35;8.70;;;3.65;;
22282;SDS011;11310;51.528;21.204;2023-02-22T15:47:08;9.65;;;3.13;;
22282;SDS011;11310;51.528;21.204;2023-02-22T15:49:42;7.05;;;3.50;;
22282;SDS011;11310;51.528;21.204;2023-02-22T15:52:16;12.30;;;4.13;;
22282;SDS011;11310;51.528;21.204;2023-02-22T15:54:48;8.10;;;3.38;;
22282;SDS011;11310;51.528;21.204;2023-02-22T15:57:22;8.07;;;3.65;;
22282;SDS011;11310;51.528;21.204;2023-02-22T16:04:14;6.55;;;2.95;;
22282;SDS011;11310;51.528;21.204;2023-02-22T16:10:31;5.60;;;2.50;;
22282;SDS011;11310;51.528;21.204;2023-02-22T16:13:07;6.47;;;2.38;;
22282;SDS011;11310;51.528;21.204;2023-02-22T16:16:24;4.32;;;2.30;;
22282;SDS011;11310;51.528;21.204;2023-02-22T16:19:58;5.30;;;2.45;;
22282;SDS011;11310;51.528;21.204;2023-02-22T16:34:03;9.82;;;3.80;;
22282;SDS011;11310;51.528;21.204;2023-02-22T16:36:38;24.58;;;8.25;;
22282;SDS011;11310;51.528;21.204;2023-02-22T16:39:25;14.43;;;5.50;;
22282;SDS011;11310;51.528;21.204;2023-02-22T16:42:14;10.95;;;5.00;;
22282;SDS011;11310;51.528;21.204;2023-02-22T16:44:49;10.73;;;4.80;;
22282;SDS011;11310;51.528;21.204;2023-02-22T16:47:27;14.27;;;6.50;;
22282;SDS011;11310;51.528;21.204;2023-02-22T16:50:08;11.95;;;5.22;;
22282;SDS011;11310;51.528;21.204;2023-02-22T16:52:48;13.25;;;5.70;;
22282;SDS011;11310;51.528;21.204;2023-02-22T16:55:27;18.08;;;6.45;;
22282;SDS011;11310;51.528;21.204;2023-02-22T16:58:18;17.65;;;5.75;;
22282;SDS011;11310;51.528;21.204;2023-02-22T17:00:49;12.95;;;5.25;;
22282;SDS011;11310;51.528;21.204;2023-02-22T17:03:19;10.90;;;4.38;;
22282;SDS011;11310;51.528;21.204;2023-02-22T17:05:57;11.05;;;4.20;;
22282;SDS011;11310;51.528;21.204;2023-02-22T17:11:21;10.48;;;3.97;;
22282;SDS011;11310;51.528;21.204;2023-02-22T17:13:56;10.35;;;4.22;;
22282;SDS011;11310;51.528;21.204;2023-02-22T17:16:25;9.23;;;4.00;;
22282;SDS011;11310;51.528;21.204;2023-02-22T17:21:54;11.95;;;4.22;;
22282;SDS011;11310;51.528;21.204;2023-02-22T17:24:34;9.38;;;3.97;;
22282;SDS011;11310;51.528;21.204;2023-02-22T17:27:05;9.73;;;3.95;;
22282;SDS011;11310;51.528;21.204;2023-02-22T17:29:35;12.63;;;4.68;;
22282;SDS011;11310;51.528;21.204;2023-02-22T17:32:32;8.30;;;3.72;;
22282;SDS011;11310;51.528;21.204;2023-02-22T17:35:04;9.70;;;3.72;;
22282;SDS011;11310;51.528;21.204;2023-02-22T17:37:38;9.85;;;3.90;;
22282;SDS011;11310;51.528;21.204;2023-02-22T17:40:27;8.82;;;4.10;;
22282;SDS011;11310;51.528;21.204;2023-02-22T17:43:06;9.63;;;4.13;;
22282;SDS011;11310;51.528;21.204;2023-02-22T17:45:39;9.73;;;4.18;;
22282;SDS011;11310;51.528;21.204;2023-02-22T17:48:11;8.70;;;3.70;;
22282;SDS011;11310;51.528;21.204;2023-02-22T17:50:50;10.05;;;3.90;;
22282;SDS011;11310;51.528;21.204;2023-02-22T17:53:42;8.02;;;3.67;;
22282;SDS011;11310;51.528;21.204;2023-02-22T17:57:29;11.93;;;4.93;;
22282;SDS011;11310;51.528;21.204;2023-02-22T18:00:54;9.65;;;4.10;;
22282;SDS011;11310;51.528;21.204;2023-02-22T18:04:00;9.85;;;4.20;;
22282;SDS011;11310;51.528;21.204;2023-02-22T18:07:10;8.07;;;3.47;;
22282;SDS011;11310;51.528;21.204;2023-02-22T18:10:08;13.20;;;4.20;;
22282;SDS011;11310;51.528;21.204;2023-02-22T18:13:05;13.93;;;4.28;;
22282;SDS011;11310;51.528;21.204;2023-02-22T18:15:49;9.88;;;4.00;;
22282;SDS011;11310;51.528;21.204;2023-02-22T18:18:55;8.32;;;3.65;;
22282;SDS011;11310;51.528;21.204;2023-02-22T18:22:03;8.75;;;3.38;;
22282;SDS011;11310;51.528;21.204;2023-02-22T18:24:55;10.20;;;3.45;;
22282;SDS011;11310;51.528;21.204;2023-02-22T18:27:56;9.18;;;3.88;;
22282;SDS011;11310;51.528;21.204;2023-02-22T18:31:04;9.77;;;3.80;;
22282;SDS011;11310;51.528;21.204;2023-02-22T18:34:12;7.80;;;3.53;;
22282;SDS011;11310;51.528;21.204;2023-02-22T18:37:03;7.03;;;3.13;;
22282;SDS011;11310;51.528;21.204;2023-02-22T18:40:11;9.73;;;3.53;;
22282;SDS011;11310;51.528;21.204;2023-02-22T18:43:51;7.18;;;3.13;;
22282;SDS011;11310;51.528;21.204;2023-02-22T18:47:08;7.15;;;3.22;;
22282;SDS011;11310;51.528;21.204;2023-02-22T18:50:26;39.47;;;9.52;;
22282;SDS011;11310;51.528;21.204;2023-02-22T18:53:53;18.42;;;7.28;;
22282;SDS011;11310;51.528;21.204;2023-02-22T18:57:14;13.55;;;8.15;;
22282;SDS011;11310;51.528;21.204;2023-02-22T19:00:37;10.85;;;5.93;;
22282;SDS011;11310;51.528;21.204;2023-02-22T19:03:31;10.50;;;5.38;;
22282;SDS011;11310;51.528;21.204;2023-02-22T19:06:28;9.38;;;4.15;;
22282;SDS011;11310;51.528;21.204;2023-02-22T19:09:23;9.45;;;4.03;;
22282;SDS011;11310;51.528;21.204;2023-02-22T19:12:24;10.05;;;4.35;;
22282;SDS011;11310;51.528;21.204;2023-02-22T19:19:27;16.02;;;5.50;;
22282;SDS011;11310;51.528;21.204;2023-02-22T19:22:13;15.43;;;5.50;;
22282;SDS011;11310;51.528;21.204;2023-02-22T19:25:54;14.48;;;5.13;;
22282;SDS011;11310;51.528;21.204;2023-02-22T19:28:55;14.77;;;5.13;;
22282;SDS011;11310;51.528;21.204;2023-02-22T19:31:52;15.75;;;5.75;;
22282;SDS011;11310;51.528;21.204;2023-02-22T19:34:49;12.02;;;3.97;;
22282;SDS011;11310;51.528;21.204;2023-02-22T19:37:39;10.85;;;4.45;;
22282;SDS011;11310;51.528;21.204;2023-02-22T19:40:40;10.35;;;3.58;;
22282;SDS011;11310;51.528;21.204;2023-02-22T19:43:49;10.80;;;5.40;;
22282;SDS011;11310;51.528;21.204;2023-02-22T19:47:06;12.40;;;5.22;;
22282;SDS011;11310;51.528;21.204;2023-02-22T19:50:53;9.88;;;4.72;;
22282;SDS011;11310;51.528;21.204;2023-02-22T19:54:00;10.93;;;4.68;;
22282;SDS011;11310;51.528;21.204;2023-02-22T19:57:04;10.32;;;4.30;;
22282;SDS011;11310;51.528;21.204;2023-02-22T20:00:09;9.90;;;4.45;;
22282;SDS011;11310;51.528;21.204;2023-02-22T20:03:18;10.02;;;3.97;;
22282;SDS011;11310;51.528;21.204;2023-02-22T20:06:49;10.45;;;4.60;;
22282;SDS011;11310;51.528;21.204;2023-02-22T20:09:51;11.75;;;5.47;;
22282;SDS011;11310;51.528;21.204;2023-02-22T20:12:47;9.15;;;4.35;;
22282;SDS011;11310;51.528;21.204;2023-02-22T20:15:20;10.35;;;5.07;;
22282;SDS011;11310;51.528;21.204;2023-02-22T20:18:00;10.48;;;4.43;;
22282;SDS011;11310;51.528;21.204;2023-02-22T20:20:40;10.30;;;4.40;;
22282;SDS011;11310;51.528;21.204;2023-02-22T20:23:13;10.40;;;4.35;;
22282;SDS011;11310;51.528;21.204;2023-02-22T20:29:06;9.45;;;3.90;;
22282;SDS011;11310;51.528;21.204;2023-02-22T20:31:42;9.77;;;4.38;;
22282;SDS011;11310;51.528;21.204;2023-02-22T20:34:17;10.05;;;4.18;;
22282;SDS011;11310;51.528;21.204;2023-02-22T20:37:00;8.68;;;3.42;;
22282;SDS011;11310;51.528;21.204;2023-02-22T20:39:35;9.82;;;4.10;;
22282;SDS011;11310;51.528;21.204;2023-02-22T20:42:22;9.13;;;4.07;;
22282;SDS011;11310;51.528;21.204;2023-02-22T20:44:53;8.23;;;3.60;;
22282;SDS011;11310;51.528;21.204;2023-02-22T20:47:32;10.60;;;4.03;;
22282;SDS011;11310;51.528;21.204;2023-02-22T20:50:10;8.65;;;3.78;;
22282;SDS011;11310;51.528;21.204;2023-02-22T20:53:20;8.50;;;3.75;;
22282;SDS011;11310;51.528;21.204;2023-02-22T20:58:45;8.95;;;3.85;;
22282;SDS011;11310;51.528;21.204;2023-02-22T21:01:30;9.80;;;3.67;;
22282;SDS011;11310;51.528;21.204;2023-02-22T21:04:43;9.65;;;3.75;;
22282;SDS011;11310;51.528;21.204;2023-02-22T21:13:09;12.68;;;7.07;;
22282;SDS011;11310;51.528;21.204;2023-02-22T21:16:16;7.38;;;3.22;;
22282;SDS011;11310;51.528;21.204;2023-02-22T21:19:27;13.25;;;4.72;;
22282;SDS011;11310;51.528;21.204;2023-02-22T21:22:03;12.95;;;4.68;;
22282;SDS011;11310;51.528;21.204;2023-02-22T21:24:48;9.52;;;4.68;;
22282;SDS011;11310;51.528;21.204;2023-02-22T21:27:35;11.30;;;3.85;;
22282;SDS011;11310;51.528;21.204;2023-02-22T21:30:31;11.10;;;4.50;;
22282;SDS011;11310;51.528;21.204;2023-02-22T21:33:20;10.10;;;4.22;;
22282;SDS011;11310;51.528;21.204;2023-02-22T21:36:00;8.27;;;3.97;;
22282;SDS011;11310;51.528;21.204;2023-02-22T21:38:41;11.75;;;4.05;;
22282;SDS011;11310;51.528;21.204;2023-02-22T21:41:23;10.85;;;4.10;;
22282;SDS011;11310;51.528;21.204;2023-02-22T21:43:59;9.50;;;3.90;;
22282;SDS011;11310;51.528;21.204;2023-02-22T21:50:30;9.43;;;3.72;;
22282;SDS011;11310;51.528;21.204;2023-02-22T21:53:17;9.27;;;3.72;;
22282;SDS011;11310;51.528;21.204;2023-02-22T21:55:50;10.52;;;4.20;;
22282;SDS011;11310;51.528;21.204;2023-02-22T21:58:24;9.45;;;4.07;;
22282;SDS011;11310;51.528;21.204;2023-02-22T22:01:29;11.05;;;5.15;;
22282;SDS011;11310;51.528;21.204;2023-02-22T22:04:13;8.23;;;3.60;;
22282;SDS011;11310;51.528;21.204;2023-02-22T22:10:13;14.07;;;4.85;;
22282;SDS011;11310;51.528;21.204;2023-02-22T22:13:06;12.73;;;4.28;;
22282;SDS011;11310;51.528;21.204;2023-02-22T22:18:34;20.98;;;5.78;;
22282;SDS011;11310;51.528;21.204;2023-02-22T22:21:39;12.05;;;4.20;;
22282;SDS011;11310;51.528;21.204;2023-02-22T22:24:14;10.75;;;3.90;;
22282;SDS011;11310;51.528;21.204;2023-02-22T22:26:47;7.97;;;3.85;;
22282;SDS011;11310;51.528;21.204;2023-02-22T22:29:33;7.03;;;3.08;;
22282;SDS011;11310;51.528;21.204;2023-02-22T22:32:11;10.43;;;4.07;;
22282;SDS011;11310;51.528;21.204;2023-02-22T22:34:50;7.03;;;3.30;;
22282;SDS011;11310;51.528;21.204;2023-02-22T22:37:42;7.65;;;3.88;;
22282;SDS011;11310;51.528;21.204;2023-02-22T22:40:21;7.88;;;4.05;;
22282;SDS011;11310;51.528;21.204;2023-02-22T22:43:07;7.50;;;3.22;;
22282;SDS011;11310;51.528;21.204;2023-02-22T22:46:09;9.00;;;3.88;;
22282;SDS011;11310;51.528;21.204;2023-02-22T22:48:47;7.55;;;3.60;;
22282;SDS011;11310;51.528;21.204;2023-02-22T22:51:28;7.47;;;3.78;;
22282;SDS011;11310;51.528;21.204;2023-02-22T22:54:12;10.35;;;3.72;;
22282;SDS011;11310;51.528;21.204;2023-02-22T22:56:45;6.10;;;3.78;;
22282;SDS011;11310;51.528;21.204;2023-02-22T22:59:28;9.60;;;4.13;;
22282;SDS011;11310;51.528;21.204;2023-02-22T23:02:03;8.35;;;4.05;;
22282;SDS011;11310;51.528;21.204;2023-02-22T23:04:52;8.45;;;3.83;;
22282;SDS011;11310;51.528;21.204;2023-02-22T23:07:30;7.93;;;3.53;;
22282;SDS011;11310;51.528;21.204;2023-02-22T23:10:08;7.50;;;3.55;;
22282;SDS011;11310;51.528;21.204;2023-02-22T23:12:50;8.25;;;3.75;;
22282;SDS011;11310;51.528;21.204;2023-02-22T23:15:53;9.60;;;4.43;;
22282;SDS011;11310;51.528;21.204;2023-02-22T23:18:24;10.35;;;4.38;;
22282;SDS011;11310;51.528;21.204;2023-02-22T23:21:00;10.90;;;4.05;;
22282;SDS011;11310;51.528;21.204;2023-02-22T23:23:31;8.27;;;3.30;;
22282;SDS011;11310;51.528;21.204;2023-02-22T23:26:10;9.55;;;3.90;;
22282;SDS011;11310;51.528;21.204;2023-02-22T23:28:50;7.32;;;3.47;;
22282;SDS011;11310;51.528;21.204;2023-02-22T23:31:37;9.20;;;4.22;;
22282;SDS011;11310;51.528;21.204;2023-02-22T23:34:21;7.93;;;4.05;;
22282;SDS011;11310;51.528;21.204;2023-02-22T23:37:05;9.70;;;4.57;;
22282;SDS011;11310;51.528;21.204;2023-02-22T23:39:45;10.73;;;5.47;;
22282;SDS011;11310;51.528;21.204;2023-02-22T23:42:26;8.63;;;3.42;;
22282;SDS011;11310;51.528;21.204;2023-02-22T23:44:55;8.35;;;4.10;;
22282;SDS011;11310;51.528;21.204;2023-02-22T23:47:30;9.10;;;3.53;;
22282;SDS011;11310;51.528;21.204;2023-02-22T23:50:27;8.32;;;3.80;;